Formoso, Kansas
Current Conditions -  °F | °C
As of 1:55 AM on Friday 21 Nov 2014 (Local Time) from KCNK Reporting Station
Clear Clear  
Wind Chill: 13°   Ceiling: Unl
Heat Index: 20°   Visibility: 10mi
Dew Point: 17°   Wind: 5mph
Humidity: 89%   Direction: 110°ESE
Pressure: 30.18"   Gusts: NA
Location:  39.78°N, 97.99°W
Report Text: KCNK 210755Z AUTO 11004KT 10SM CLR M07/M08 A3018 RMK AO2 SLP234 T10671083
Loading
Personal Weather Stations






























Interactive Weather Map New forecast layout! Learn more

10-Day Weather Forecast

Advertisements
Track Severe Weather on mobile